UNEE/KEJ METAR and TAF weather

Enter ICAO airport designator
Station Type Date Time Source
UNEE METAR 2021/09/20 04:30 UTC NOAA

UNEE 200430Z 20006MPS 9999 -SHRA BKN020CB 06/03 Q1009 R23/190055 NOSIG RMK QFE734


Station Type Date Time Source
UNEE Decoded METAR 2021/09/20 04:30 UTC NOAA

Kemerovo, Russia (UNEE) 55-19-48N 086-04-48E
Sep 20, 2021 - 12:30 AM EDT / 2021.09.20 0430 UTC
Wind: from the SSW (200 degrees) at 13 MPH (12 KT):0
Visibility: greater than 7 mile(s):0
Sky conditions: mostly cloudy
Weather: light rain showers; Cumulonimbus clouds observed
Temperature: 42 F (6 C)
Dew Point: 37 F (3 C)
Relative Humidity: 81%
Pressure (altimeter): 29.80 in. Hg (1009 hPa)
ob: UNEE 200430Z 20006MPS 9999 -SHRA BKN020CB 06/03 Q1009 R23/190055 NOSIG RMK QFE734
cycle: 4

Station Type Date Time Source
UNEE TAF 2021/09/20 03:21 UTC NOAA

TAF UNEE 200200Z 2003/2103 22006G14MPS 8000 -SHRA BKN030CB
TEMPO 2003/2015 26009G16MPS BKN010 BKN016CB
TEMPO 2015/2103 -SHRASN BKN016CB

Example: see airport list